sensor_id;sensor_type;location;lat;lon;timestamp;pressure;altitude;pressure_sealevel;temperature;humidity
56604;BME280;42486;47.478;19.036;2023-04-24T00:00:09;99471.53;;;11.82;79.72
56604;BME280;42486;47.478;19.036;2023-04-24T00:03:17;99473.47;;;11.80;79.58
56604;BME280;42486;47.478;19.036;2023-04-24T00:06:30;99470.84;;;11.80;79.07
56604;BME280;42486;47.478;19.036;2023-04-24T00:09:39;99467.69;;;11.76;80.86
56604;BME280;42486;47.478;19.036;2023-04-24T00:12:43;99469.09;;;11.71;80.69
56604;BME280;42486;47.478;19.036;2023-04-24T00:15:47;99475.53;;;11.76;81.66
56604;BME280;42486;47.478;19.036;2023-04-24T00:18:52;99474.16;;;11.82;81.05
56604;BME280;42486;47.478;19.036;2023-04-24T00:21:58;99474.84;;;11.84;80.52
56604;BME280;42486;47.478;19.036;2023-04-24T00:25:02;99475.09;;;11.90;80.74
56604;BME280;42486;47.478;19.036;2023-04-24T00:28:08;99479.62;;;11.98;79.88
56604;BME280;42486;47.478;19.036;2023-04-24T00:31:12;99472.31;;;12.02;78.81
56604;BME280;42486;47.478;19.036;2023-04-24T00:34:17;99469.25;;;12.06;78.68
56604;BME280;42486;47.478;19.036;2023-04-24T00:37:20;99471.47;;;12.11;78.75
56604;BME280;42486;47.478;19.036;2023-04-24T00:40:23;99471.84;;;12.16;79.08
56604;BME280;42486;47.478;19.036;2023-04-24T00:43:26;99463.28;;;12.24;79.84
56604;BME280;42486;47.478;19.036;2023-04-24T00:46:29;99470.00;;;12.26;80.66
56604;BME280;42486;47.478;19.036;2023-04-24T00:49:33;99473.16;;;12.30;81.71
56604;BME280;42486;47.478;19.036;2023-04-24T00:52:42;99463.09;;;12.25;80.27
56604;BME280;42486;47.478;19.036;2023-04-24T00:55:44;99449.63;;;12.20;79.85
56604;BME280;42486;47.478;19.036;2023-04-24T00:58:55;99451.72;;;12.17;79.70
56604;BME280;42486;47.478;19.036;2023-04-24T01:01:58;99451.19;;;12.13;78.54
56604;BME280;42486;47.478;19.036;2023-04-24T01:05:08;99447.19;;;12.09;78.14
56604;BME280;42486;47.478;19.036;2023-04-24T01:08:12;99457.00;;;12.07;79.26
56604;BME280;42486;47.478;19.036;2023-04-24T01:11:19;99450.50;;;12.11;79.82
56604;BME280;42486;47.478;19.036;2023-04-24T01:14:25;99447.91;;;12.11;78.75
56604;BME280;42486;47.478;19.036;2023-04-24T01:17:28;99451.03;;;12.15;78.91
56604;BME280;42486;47.478;19.036;2023-04-24T01:20:31;99442.06;;;12.17;76.75
56604;BME280;42486;47.478;19.036;2023-04-24T01:23:37;99442.16;;;12.25;77.38
56604;BME280;42486;47.478;19.036;2023-04-24T01:26:40;99447.19;;;12.37;74.24
56604;BME280;42486;47.478;19.036;2023-04-24T01:29:43;99447.75;;;12.40;77.41
56604;BME280;42486;47.478;19.036;2023-04-24T01:32:47;99450.06;;;12.43;77.98
56604;BME280;42486;47.478;19.036;2023-04-24T01:35:52;99441.22;;;12.44;75.02
56604;BME280;42486;47.478;19.036;2023-04-24T01:38:55;99433.59;;;12.51;74.20
56604;BME280;42486;47.478;19.036;2023-04-24T01:41:58;99434.12;;;12.54;72.59
56604;BME280;42486;47.478;19.036;2023-04-24T01:45:02;99429.66;;;12.65;74.87
56604;BME280;42486;47.478;19.036;2023-04-24T01:48:06;99411.81;;;12.68;75.25
56604;BME280;42486;47.478;19.036;2023-04-24T01:51:09;99411.81;;;12.68;74.42
56604;BME280;42486;47.478;19.036;2023-04-24T01:54:12;99396.19;;;12.59;81.85
56604;BME280;42486;47.478;19.036;2023-04-24T01:57:16;99400.41;;;11.96;97.30
56604;BME280;42486;47.478;19.036;2023-04-24T02:00:18;99398.78;;;11.48;100.00
56604;BME280;42486;47.478;19.036;2023-04-24T02:03:20;99384.84;;;11.10;100.00
56604;BME280;42486;47.478;19.036;2023-04-24T02:06:23;99379.94;;;10.88;100.00
56604;BME280;42486;47.478;19.036;2023-04-24T02:09:26;99381.44;;;10.80;100.00
56604;BME280;42486;47.478;19.036;2023-04-24T02:12:28;99368.50;;;10.79;100.00
56604;BME280;42486;47.478;19.036;2023-04-24T02:15:30;99362.31;;;10.80;100.00
56604;BME280;42486;47.478;19.036;2023-04-24T02:18:33;99358.59;;;10.73;100.00
56604;BME280;42486;47.478;19.036;2023-04-24T02:21:38;99363.97;;;10.71;100.00
56604;BME280;42486;47.478;19.036;2023-04-24T02:24:41;99358.88;;;10.70;100.00
56604;BME280;42486;47.478;19.036;2023-04-24T02:27:44;99352.97;;;10.68;100.00
56604;BME280;42486;47.478;19.036;2023-04-24T02:30:47;99358.59;;;10.63;100.00
56604;BME280;42486;47.478;19.036;2023-04-24T02:33:50;99345.13;;;10.68;100.00
56604;BME280;42486;47.478;19.036;2023-04-24T02:36:52;99357.09;;;10.80;100.00
56604;BME280;42486;47.478;19.036;2023-04-24T02:39:56;99360.78;;;10.87;100.00
56604;BME280;42486;47.478;19.036;2023-04-24T02:43:00;99358.88;;;10.89;100.00
56604;BME280;42486;47.478;19.036;2023-04-24T02:46:02;99357.09;;;10.80;100.00
56604;BME280;42486;47.478;19.036;2023-04-24T02:49:06;99353.22;;;10.84;100.00
56604;BME280;42486;47.478;19.036;2023-04-24T02:52:08;99348.41;;;10.99;100.00
56604;BME280;42486;47.478;19.036;2023-04-24T02:55:11;99350.19;;;10.98;100.00
56604;BME280;42486;47.478;19.036;2023-04-24T02:58:15;99347.84;;;10.95;100.00
56604;BME280;42486;47.478;19.036;2023-04-24T03:01:26;99342.38;;;10.98;100.00
56604;BME280;42486;47.478;19.036;2023-04-24T03:04:30;99342.59;;;11.05;100.00
56604;BME280;42486;47.478;19.036;2023-04-24T03:07:34;99341.91;;;11.13;100.00
56604;BME280;42486;47.478;19.036;2023-04-24T03:10:38;99328.03;;;11.12;100.00
56604;BME280;42486;47.478;19.036;2023-04-24T03:13:41;99332.38;;;11.21;100.00
56604;BME280;42486;47.478;19.036;2023-04-24T03:16:43;99333.47;;;11.29;100.00
56604;BME280;42486;47.478;19.036;2023-04-24T03:19:47;99331.37;;;11.32;100.00
56604;BME280;42486;47.478;19.036;2023-04-24T03:22:52;99342.53;;;11.34;100.00
56604;BME280;42486;47.478;19.036;2023-04-24T03:25:56;99338.59;;;11.20;100.00
56604;BME280;42486;47.478;19.036;2023-04-24T03:28:59;99345.22;;;11.15;100.00
56604;BME280;42486;47.478;19.036;2023-04-24T03:32:02;99337.91;;;11.18;100.00
56604;BME280;42486;47.478;19.036;2023-04-24T03:35:06;99336.91;;;11.19;100.00
56604;BME280;42486;47.478;19.036;2023-04-24T03:38:10;99339.00;;;11.26;100.00
56604;BME280;42486;47.478;19.036;2023-04-24T03:41:13;99331.97;;;11.26;100.00
56604;BME280;42486;47.478;19.036;2023-04-24T03:44:16;99334.81;;;11.33;100.00
56604;BME280;42486;47.478;19.036;2023-04-24T03:47:21;99333.31;;;11.30;100.00
56604;BME280;42486;47.478;19.036;2023-04-24T03:50:25;99332.50;;;11.30;100.00
56604;BME280;42486;47.478;19.036;2023-04-24T03:53:32;99334.72;;;11.24;100.00
56604;BME280;42486;47.478;19.036;2023-04-24T03:56:36;99338.13;;;11.35;100.00
56604;BME280;42486;47.478;19.036;2023-04-24T03:59:40;99331.25;;;11.34;100.00
56604;BME280;42486;47.478;19.036;2023-04-24T04:02:45;99323.31;;;11.26;100.00
56604;BME280;42486;47.478;19.036;2023-04-24T04:05:52;99320.50;;;11.37;100.00
56604;BME280;42486;47.478;19.036;2023-04-24T04:08:56;99327.94;;;11.32;100.00
56604;BME280;42486;47.478;19.036;2023-04-24T04:11:59;99316.09;;;11.37;100.00
56604;BME280;42486;47.478;19.036;2023-04-24T04:15:03;99319.97;;;11.33;100.00
56604;BME280;42486;47.478;19.036;2023-04-24T04:18:09;99318.75;;;11.28;100.00
56604;BME280;42486;47.478;19.036;2023-04-24T04:21:13;99329.31;;;11.36;100.00
56604;BME280;42486;47.478;19.036;2023-04-24T04:24:15;99351.56;;;11.50;100.00
56604;BME280;42486;47.478;19.036;2023-04-24T04:27:20;99340.91;;;11.61;100.00
56604;BME280;42486;47.478;19.036;2023-04-24T04:30:29;99329.47;;;11.62;100.00
56604;BME280;42486;47.478;19.036;2023-04-24T04:33:36;99333.59;;;11.64;100.00
56604;BME280;42486;47.478;19.036;2023-04-24T04:36:43;99333.13;;;11.79;100.00
56604;BME280;42486;47.478;19.036;2023-04-24T04:39:46;99331.06;;;11.73;100.00
56604;BME280;42486;47.478;19.036;2023-04-24T04:42:50;99343.59;;;11.79;100.00
56604;BME280;42486;47.478;19.036;2023-04-24T04:45:57;99342.91;;;11.86;100.00
56604;BME280;42486;47.478;19.036;2023-04-24T04:49:01;99340.88;;;11.98;100.00
56604;BME280;42486;47.478;19.036;2023-04-24T04:52:10;99329.44;;;11.99;100.00
56604;BME280;42486;47.478;19.036;2023-04-24T04:55:14;99321.97;;;12.04;100.00
56604;BME280;42486;47.478;19.036;2023-04-24T04:58:17;99313.69;;;12.09;100.00
56604;BME280;42486;47.478;19.036;2023-04-24T05:01:24;99324.78;;;12.21;100.00
56604;BME280;42486;47.478;19.036;2023-04-24T05:04:34;99324.16;;;12.27;100.00
56604;BME280;42486;47.478;19.036;2023-04-24T05:07:40;99321.13;;;12.31;100.00
56604;BME280;42486;47.478;19.036;2023-04-24T05:10:43;99318.56;;;12.40;100.00
56604;BME280;42486;47.478;19.036;2023-04-24T05:13:51;99317.88;;;12.55;100.00
56604;BME280;42486;47.478;19.036;2023-04-24T05:16:55;99316.44;;;12.61;100.00
56604;BME280;42486;47.478;19.036;2023-04-24T05:20:03;99314.84;;;12.68;99.61
56604;BME280;42486;47.478;19.036;2023-04-24T05:23:17;99319.94;;;12.88;100.00
56604;BME280;42486;47.478;19.036;2023-04-24T05:26:24;99317.41;;;13.04;96.08
56604;BME280;42486;47.478;19.036;2023-04-24T05:29:31;99322.81;;;13.29;97.49
56604;BME280;42486;47.478;19.036;2023-04-24T05:32:36;99326.97;;;13.39;96.38
56604;BME280;42486;47.478;19.036;2023-04-24T05:35:40;99326.97;;;13.39;91.47
56604;BME280;42486;47.478;19.036;2023-04-24T05:38:50;99336.66;;;13.39;97.30
56604;BME280;42486;47.478;19.036;2023-04-24T05:41:55;99338.81;;;13.43;95.20
56604;BME280;42486;47.478;19.036;2023-04-24T05:45:00;99334.84;;;13.39;91.62
56604;BME280;42486;47.478;19.036;2023-04-24T05:48:11;99335.63;;;13.32;93.46
56604;BME280;42486;47.478;19.036;2023-04-24T05:51:15;99325.31;;;13.30;96.06
56604;BME280;42486;47.478;19.036;2023-04-24T05:54:20;99335.66;;;13.40;94.15
56604;BME280;42486;47.478;19.036;2023-04-24T05:57:23;99333.16;;;13.56;93.02
56604;BME280;42486;47.478;19.036;2023-04-24T06:00:27;99339.91;;;13.67;89.76
56604;BME280;42486;47.478;19.036;2023-04-24T06:03:31;99336.06;;;14.04;89.15
56604;BME280;42486;47.478;19.036;2023-04-24T06:06:36;99340.09;;;14.32;87.96
56604;BME280;42486;47.478;19.036;2023-04-24T06:09:40;99337.13;;;14.36;86.50
56604;BME280;42486;47.478;19.036;2023-04-24T06:12:47;99345.34;;;14.49;85.89
56604;BME280;42486;47.478;19.036;2023-04-24T06:15:51;99355.09;;;14.65;86.55
56604;BME280;42486;47.478;19.036;2023-04-24T06:18:54;99354.25;;;15.22;84.42
56604;BME280;42486;47.478;19.036;2023-04-24T06:21:58;99361.37;;;15.69;82.22
56604;BME280;42486;47.478;19.036;2023-04-24T06:25:01;99356.41;;;16.13;76.35
56604;BME280;42486;47.478;19.036;2023-04-24T06:28:05;99357.56;;;15.71;81.49
56604;BME280;42486;47.478;19.036;2023-04-24T06:31:08;99363.28;;;15.27;82.44
56604;BME280;42486;47.478;19.036;2023-04-24T06:34:11;99350.00;;;14.71;85.79
56604;BME280;42486;47.478;19.036;2023-04-24T06:37:22;99339.38;;;14.14;93.94
56604;BME280;42486;47.478;19.036;2023-04-24T06:40:26;99342.03;;;13.72;94.62
56604;BME280;42486;47.478;19.036;2023-04-24T06:43:29;99344.63;;;13.29;98.59
56604;BME280;42486;47.478;19.036;2023-04-24T06:46:35;99341.25;;;13.19;100.00
56604;BME280;42486;47.478;19.036;2023-04-24T06:49:45;99341.03;;;13.30;100.00
56604;BME280;42486;47.478;19.036;2023-04-24T06:52:47;99337.59;;;13.64;100.00
56604;BME280;42486;47.478;19.036;2023-04-24T06:55:51;99333.41;;;13.87;99.02
56604;BME280;42486;47.478;19.036;2023-04-24T06:58:54;99333.62;;;14.02;99.46
56604;BME280;42486;47.478;19.036;2023-04-24T07:01:58;99329.41;;;14.26;98.95
56604;BME280;42486;47.478;19.036;2023-04-24T07:05:01;99334.03;;;14.40;98.63
56604;BME280;42486;47.478;19.036;2023-04-24T07:08:04;99334.84;;;14.49;95.17
56604;BME280;42486;47.478;19.036;2023-04-24T07:11:09;99332.56;;;14.62;96.37
56604;BME280;42486;47.478;19.036;2023-04-24T07:14:12;99317.94;;;14.68;93.77
56604;BME280;42486;47.478;19.036;2023-04-24T07:17:15;99340.13;;;14.98;92.45
56604;BME280;42486;47.478;19.036;2023-04-24T07:20:21;99340.28;;;14.88;91.11
56604;BME280;42486;47.478;19.036;2023-04-24T07:23:25;99343.44;;;15.00;92.15
56604;BME280;42486;47.478;19.036;2023-04-24T07:26:29;99342.91;;;15.05;91.26
56604;BME280;42486;47.478;19.036;2023-04-24T07:29:33;99346.66;;;15.18;92.55
56604;BME280;42486;47.478;19.036;2023-04-24T07:32:35;99341.59;;;15.17;90.52
56604;BME280;42486;47.478;19.036;2023-04-24T07:35:40;99336.13;;;15.18;90.70
56604;BME280;42486;47.478;19.036;2023-04-24T07:38:43;99335.34;;;15.02;89.24
56604;BME280;42486;47.478;19.036;2023-04-24T07:41:46;99335.53;;;15.08;89.20
56604;BME280;42486;47.478;19.036;2023-04-24T07:44:53;99342.88;;;15.29;90.61
56604;BME280;42486;47.478;19.036;2023-04-24T07:47:57;99337.87;;;15.98;86.77
56604;BME280;42486;47.478;19.036;2023-04-24T07:51:00;99337.19;;;16.50;83.61
56604;BME280;42486;47.478;19.036;2023-04-24T07:54:04;99340.59;;;17.50;75.17
56604;BME280;42486;47.478;19.036;2023-04-24T07:57:09;99342.75;;;17.16;79.19
56604;BME280;42486;47.478;19.036;2023-04-24T08:00:12;99358.66;;;18.70;72.79
56604;BME280;42486;47.478;19.036;2023-04-24T08:03:16;99365.22;;;20.75;62.70
56604;BME280;42486;47.478;19.036;2023-04-24T08:06:31;99367.03;;;20.67;62.96
56604;BME280;42486;47.478;19.036;2023-04-24T08:09:44;99359.75;;;20.08;64.59
56604;BME280;42486;47.478;19.036;2023-04-24T08:12:50;99352.63;;;19.32;67.52
56604;BME280;42486;47.478;19.036;2023-04-24T08:15:53;99343.59;;;18.70;69.09
56604;BME280;42486;47.478;19.036;2023-04-24T08:18:56;99341.72;;;18.64;71.56
56604;BME280;42486;47.478;19.036;2023-04-24T08:21:58;99336.38;;;18.21;71.49
56604;BME280;42486;47.478;19.036;2023-04-24T08:25:01;99337.00;;;17.87;73.47
56604;BME280;42486;47.478;19.036;2023-04-24T08:28:08;99340.41;;;17.66;74.93
56604;BME280;42486;47.478;19.036;2023-04-24T08:31:15;99338.78;;;17.50;73.64
56604;BME280;42486;47.478;19.036;2023-04-24T08:34:20;99334.66;;;17.33;75.45
56604;BME280;42486;47.478;19.036;2023-04-24T08:37:25;99332.50;;;17.22;76.85
56604;BME280;42486;47.478;19.036;2023-04-24T08:40:28;99335.00;;;17.15;78.93
56604;BME280;42486;47.478;19.036;2023-04-24T08:43:33;99332.03;;;17.48;75.77
56604;BME280;42486;47.478;19.036;2023-04-24T08:46:37;99332.75;;;17.71;76.38
56604;BME280;42486;47.478;19.036;2023-04-24T08:49:40;99330.37;;;17.61;74.86
56604;BME280;42486;47.478;19.036;2023-04-24T08:52:45;99336.41;;;17.85;72.96
56604;BME280;42486;47.478;19.036;2023-04-24T08:55:49;99341.31;;;18.24;74.81
56604;BME280;42486;47.478;19.036;2023-04-24T08:58:54;99343.53;;;18.85;69.31
56604;BME280;42486;47.478;19.036;2023-04-24T09:01:59;99334.22;;;19.24;68.88
56604;BME280;42486;47.478;19.036;2023-04-24T09:05:02;99337.56;;;19.05;66.84
56604;BME280;42486;47.478;19.036;2023-04-24T09:08:06;99331.69;;;19.09;67.97
56604;BME280;42486;47.478;19.036;2023-04-24T09:11:09;99320.53;;;19.14;68.66
56604;BME280;42486;47.478;19.036;2023-04-24T09:14:13;99330.28;;;19.13;66.68
56604;BME280;42486;47.478;19.036;2023-04-24T09:17:17;99325.19;;;19.12;67.58
56604;BME280;42486;47.478;19.036;2023-04-24T09:20:22;99333.84;;;19.27;64.88
56604;BME280;42486;47.478;19.036;2023-04-24T09:23:26;99320.50;;;19.42;64.71
56604;BME280;42486;47.478;19.036;2023-04-24T09:26:32;99328.25;;;19.85;63.06
56604;BME280;42486;47.478;19.036;2023-04-24T09:29:36;99326.44;;;19.92;62.78
56604;BME280;42486;47.478;19.036;2023-04-24T09:32:40;99319.66;;;19.76;62.42
56604;BME280;42486;47.478;19.036;2023-04-24T09:35:50;99320.56;;;19.55;62.25
56604;BME280;42486;47.478;19.036;2023-04-24T09:38:53;99309.81;;;19.29;62.40
56604;BME280;42486;47.478;19.036;2023-04-24T09:42:03;99302.91;;;19.00;62.66
56604;BME280;42486;47.478;19.036;2023-04-24T09:45:10;99305.53;;;19.28;63.14
56604;BME280;42486;47.478;19.036;2023-04-24T09:48:17;99304.44;;;19.57;60.92
56604;BME280;42486;47.478;19.036;2023-04-24T09:51:35;99299.37;;;19.55;62.71
56604;BME280;42486;47.478;19.036;2023-04-24T09:54:58;99294.59;;;19.37;60.88
56604;BME280;42486;47.478;19.036;2023-04-24T09:58:05;99289.69;;;19.34;62.00
56604;BME280;42486;47.478;19.036;2023-04-24T10:01:10;99289.12;;;19.11;62.67
56604;BME280;42486;47.478;19.036;2023-04-24T10:04:18;99286.63;;;19.31;62.68
56604;BME280;42486;47.478;19.036;2023-04-24T10:07:22;99288.88;;;19.41;61.89
56604;BME280;42486;47.478;19.036;2023-04-24T10:10:27;99293.78;;;19.44;61.18
56604;BME280;42486;47.478;19.036;2023-04-24T10:13:31;99295.59;;;19.71;61.08
56604;BME280;42486;47.478;19.036;2023-04-24T10:16:34;99297.28;;;19.99;59.05
56604;BME280;42486;47.478;19.036;2023-04-24T10:19:38;99291.41;;;20.04;58.76
56604;BME280;42486;47.478;19.036;2023-04-24T10:22:44;99290.16;;;19.99;58.53
56604;BME280;42486;47.478;19.036;2023-04-24T10:25:50;99284.41;;;19.83;57.73
56604;BME280;42486;47.478;19.036;2023-04-24T10:28:53;99294.63;;;19.92;58.99
56604;BME280;42486;47.478;19.036;2023-04-24T10:31:59;99287.50;;;19.99;57.99
56604;BME280;42486;47.478;19.036;2023-04-24T10:35:01;99286.06;;;19.90;58.65
56604;BME280;42486;47.478;19.036;2023-04-24T10:38:10;99283.19;;;19.85;56.54
56604;BME280;42486;47.478;19.036;2023-04-24T10:41:14;99279.53;;;19.93;57.95
56604;BME280;42486;47.478;19.036;2023-04-24T10:44:23;99293.84;;;19.98;58.77
56604;BME280;42486;47.478;19.036;2023-04-24T10:47:28;99286.91;;;20.04;60.01
56604;BME280;42486;47.478;19.036;2023-04-24T10:50:46;99286.75;;;20.32;59.66
56604;BME280;42486;47.478;19.036;2023-04-24T10:53:51;99289.41;;;20.52;57.62
56604;BME280;42486;47.478;19.036;2023-04-24T11:00:19;99284.03;;;19.99;59.24
56604;BME280;42486;47.478;19.036;2023-04-24T11:03:25;99282.00;;;20.01;60.46
56604;BME280;42486;47.478;19.036;2023-04-24T11:06:35;99280.59;;;20.12;58.05
56604;BME280;42486;47.478;19.036;2023-04-24T11:09:39;99277.94;;;20.12;58.06
56604;BME280;42486;47.478;19.036;2023-04-24T11:13:06;99263.69;;;20.39;57.34
56604;BME280;42486;47.478;19.036;2023-04-24T11:16:25;99261.06;;;20.86;56.78
56604;BME280;42486;47.478;19.036;2023-04-24T11:19:29;99257.94;;;21.02;56.25
56604;BME280;42486;47.478;19.036;2023-04-24T11:22:33;99258.19;;;20.87;56.61
56604;BME280;42486;47.478;19.036;2023-04-24T11:25:39;99253.09;;;20.79;55.55
56604;BME280;42486;47.478;19.036;2023-04-24T11:28:45;99256.97;;;20.77;55.61
56604;BME280;42486;47.478;19.036;2023-04-24T11:31:48;99254.34;;;20.70;56.58
56604;BME280;42486;47.478;19.036;2023-04-24T11:34:55;99254.72;;;20.40;57.10
56604;BME280;42486;47.478;19.036;2023-04-24T11:37:59;99245.13;;;20.19;57.97
56604;BME280;42486;47.478;19.036;2023-04-24T11:41:25;99245.94;;;20.20;58.10
56604;BME280;42486;47.478;19.036;2023-04-24T11:44:30;99241.44;;;20.34;59.31
56604;BME280;42486;47.478;19.036;2023-04-24T11:47:34;99243.72;;;20.63;58.08
56604;BME280;42486;47.478;19.036;2023-04-24T11:50:39;99242.28;;;20.61;59.86
56604;BME280;42486;47.478;19.036;2023-04-24T11:53:42;99236.16;;;20.74;57.43
56604;BME280;42486;47.478;19.036;2023-04-24T11:56:47;99226.34;;;20.61;58.13
56604;BME280;42486;47.478;19.036;2023-04-24T11:59:55;99227.19;;;20.75;58.24
56604;BME280;42486;47.478;19.036;2023-04-24T12:03:09;99216.34;;;20.70;55.72
56604;BME280;42486;47.478;19.036;2023-04-24T12:06:12;99204.31;;;20.34;57.45
56604;BME280;42486;47.478;19.036;2023-04-24T12:09:16;99207.97;;;20.06;57.21
56604;BME280;42486;47.478;19.036;2023-04-24T12:12:20;99201.66;;;20.20;57.69
56604;BME280;42486;47.478;19.036;2023-04-24T12:15:23;99205.12;;;20.34;58.71
56604;BME280;42486;47.478;19.036;2023-04-24T12:18:29;99198.81;;;20.35;61.25
56604;BME280;42486;47.478;19.036;2023-04-24T12:21:33;99209.37;;;19.89;63.09
56604;BME280;42486;47.478;19.036;2023-04-24T12:24:56;99204.56;;;19.44;64.41
56604;BME280;42486;47.478;19.036;2023-04-24T12:31:06;99195.50;;;19.25;65.22
56604;BME280;42486;47.478;19.036;2023-04-24T12:34:21;99197.66;;;19.50;65.08
56604;BME280;42486;47.478;19.036;2023-04-24T12:37:25;99185.97;;;19.37;62.65
56604;BME280;42486;47.478;19.036;2023-04-24T12:40:28;99181.62;;;19.17;66.00
56604;BME280;42486;47.478;19.036;2023-04-24T12:43:36;99171.19;;;19.08;66.62
56604;BME280;42486;47.478;19.036;2023-04-24T12:46:40;99165.91;;;19.02;67.66
56604;BME280;42486;47.478;19.036;2023-04-24T12:49:43;99173.13;;;18.86;66.91
56604;BME280;42486;47.478;19.036;2023-04-24T12:52:47;99163.19;;;18.88;67.48
56604;BME280;42486;47.478;19.036;2023-04-24T12:55:50;99168.25;;;18.83;67.80
56604;BME280;42486;47.478;19.036;2023-04-24T12:58:55;99153.66;;;18.66;69.98
56604;BME280;42486;47.478;19.036;2023-04-24T13:01:58;99158.97;;;18.38;71.79
56604;BME280;42486;47.478;19.036;2023-04-24T13:05:01;99153.78;;;18.23;73.30
56604;BME280;42486;47.478;19.036;2023-04-24T13:08:05;99149.63;;;18.14;74.30
56604;BME280;42486;47.478;19.036;2023-04-24T13:11:09;99152.34;;;18.20;74.44
56604;BME280;42486;47.478;19.036;2023-04-24T13:14:12;99152.16;;;18.00;75.74
56604;BME280;42486;47.478;19.036;2023-04-24T13:17:21;99154.34;;;17.90;77.27
56604;BME280;42486;47.478;19.036;2023-04-24T13:20:28;99147.59;;;17.88;77.36
56604;BME280;42486;47.478;19.036;2023-04-24T13:23:32;99150.16;;;17.81;78.46
56604;BME280;42486;47.478;19.036;2023-04-24T13:26:36;99149.81;;;17.48;81.63
56604;BME280;42486;47.478;19.036;2023-04-24T13:29:40;99143.06;;;17.24;85.13
56604;BME280;42486;47.478;19.036;2023-04-24T13:32:46;99140.37;;;17.02;88.20
56604;BME280;42486;47.478;19.036;2023-04-24T13:35:53;99137.09;;;16.70;90.58
56604;BME280;42486;47.478;19.036;2023-04-24T13:38:57;99136.69;;;16.29;93.36
56604;BME280;42486;47.478;19.036;2023-04-24T13:42:04;99145.00;;;16.03;99.28
56604;BME280;42486;47.478;19.036;2023-04-24T13:45:09;99144.47;;;15.70;100.00
56604;BME280;42486;47.478;19.036;2023-04-24T13:48:26;99153.63;;;15.51;100.00
56604;BME280;42486;47.478;19.036;2023-04-24T13:51:30;99142.13;;;15.12;100.00
56604;BME280;42486;47.478;19.036;2023-04-24T13:54:33;99154.94;;;14.76;100.00
56604;BME280;42486;47.478;19.036;2023-04-24T13:57:36;99156.97;;;14.49;100.00
56604;BME280;42486;47.478;19.036;2023-04-24T14:00:38;99157.81;;;14.34;100.00
56604;BME280;42486;47.478;19.036;2023-04-24T14:03:41;99162.09;;;14.18;100.00
56604;BME280;42486;47.478;19.036;2023-04-24T14:07:00;99154.06;;;13.87;100.00
56604;BME280;42486;47.478;19.036;2023-04-24T14:10:14;99166.00;;;13.57;100.00
56604;BME280;42486;47.478;19.036;2023-04-24T14:13:19;99165.31;;;13.47;100.00
56604;BME280;42486;47.478;19.036;2023-04-24T14:16:21;99166.12;;;13.39;100.00
56604;BME280;42486;47.478;19.036;2023-04-24T14:19:31;99163.19;;;13.50;100.00
56604;BME280;42486;47.478;19.036;2023-04-24T14:22:43;99166.28;;;13.46;100.00
56604;BME280;42486;47.478;19.036;2023-04-24T14:25:47;99157.13;;;13.50;100.00
56604;BME280;42486;47.478;19.036;2023-04-24T14:28:53;99159.75;;;13.58;100.00
56604;BME280;42486;47.478;19.036;2023-04-24T14:32:15;99157.81;;;13.76;100.00
56604;BME280;42486;47.478;19.036;2023-04-24T14:35:18;99158.34;;;14.04;100.00
56604;BME280;42486;47.478;19.036;2023-04-24T14:38:24;99157.81;;;14.34;100.00
56604;BME280;42486;47.478;19.036;2023-04-24T14:41:26;99165.66;;;14.50;100.00
56604;BME280;42486;47.478;19.036;2023-04-24T14:44:28;99159.06;;;14.62;100.00
56604;BME280;42486;47.478;19.036;2023-04-24T14:47:30;99163.37;;;14.55;100.00
56604;BME280;42486;47.478;19.036;2023-04-24T14:50:32;99163.06;;;14.58;100.00
56604;BME280;42486;47.478;19.036;2023-04-24T14:53:34;99160.56;;;14.48;100.00
56604;BME280;42486;47.478;19.036;2023-04-24T14:56:37;99157.09;;;14.64;100.00
56604;BME280;42486;47.478;19.036;2023-04-24T14:59:42;99164.84;;;14.66;100.00
56604;BME280;42486;47.478;19.036;2023-04-24T15:02:44;99166.81;;;14.64;100.00
56604;BME280;42486;47.478;19.036;2023-04-24T15:05:47;99167.50;;;14.58;100.00
56604;BME280;42486;47.478;19.036;2023-04-24T15:08:49;99161.56;;;14.47;100.00
56604;BME280;42486;47.478;19.036;2023-04-24T15:11:51;99168.13;;;14.35;100.00
56604;BME280;42486;47.478;19.036;2023-04-24T15:14:54;99166.53;;;14.26;100.00
56604;BME280;42486;47.478;19.036;2023-04-24T15:17:56;99169.63;;;14.38;100.00
56604;BME280;42486;47.478;19.036;2023-04-24T15:20:58;99171.09;;;14.57;100.00
56604;BME280;42486;47.478;19.036;2023-04-24T15:24:01;99167.06;;;14.85;100.00
56604;BME280;42486;47.478;19.036;2023-04-24T15:27:04;99166.81;;;15.11;100.00
56604;BME280;42486;47.478;19.036;2023-04-24T15:30:06;99167.44;;;15.22;100.00
56604;BME280;42486;47.478;19.036;2023-04-24T15:33:10;99164.19;;;15.11;100.00
56604;BME280;42486;47.478;19.036;2023-04-24T15:36:12;99169.25;;;15.13;100.00
56604;BME280;42486;47.478;19.036;2023-04-24T15:39:17;99166.59;;;15.21;100.00
56604;BME280;42486;47.478;19.036;2023-04-24T15:42:19;99169.19;;;15.29;100.00
56604;BME280;42486;47.478;19.036;2023-04-24T15:45:21;99171.06;;;15.12;100.00
56604;BME280;42486;47.478;19.036;2023-04-24T15:48:24;99173.75;;;15.04;100.00
56604;BME280;42486;47.478;19.036;2023-04-24T15:51:26;99174.25;;;15.00;100.00
56604;BME280;42486;47.478;19.036;2023-04-24T15:54:28;99174.28;;;14.91;100.00
56604;BME280;42486;47.478;19.036;2023-04-24T15:57:31;99177.28;;;14.80;100.00
56604;BME280;42486;47.478;19.036;2023-04-24T16:00:33;99180.09;;;14.70;100.00
56604;BME280;42486;47.478;19.036;2023-04-24T16:03:38;99171.59;;;14.60;100.00
56604;BME280;42486;47.478;19.036;2023-04-24T16:06:40;99174.53;;;14.41;100.00